sensor_id;sensor_type;location;lat;lon;timestamp;temperature;humidity
62339;DHT22;48368;53.406;6.214;2023-08-20T00:00:58;16.20;99.90
62339;DHT22;48368;53.406;6.214;2023-08-20T00:03:24;16.20;99.90
62339;DHT22;48368;53.406;6.214;2023-08-20T00:05:50;16.10;99.90
62339;DHT22;48368;53.406;6.214;2023-08-20T00:08:16;16.20;99.90
62339;DHT22;48368;53.406;6.214;2023-08-20T00:10:42;16.20;99.90
62339;DHT22;48368;53.406;6.214;2023-08-20T00:13:07;16.10;99.90
62339;DHT22;48368;53.406;6.214;2023-08-20T00:15:45;16.10;99.90
62339;DHT22;48368;53.406;6.214;2023-08-20T00:18:15;16.10;99.90
62339;DHT22;48368;53.406;6.214;2023-08-20T00:20:41;16.10;99.90
62339;DHT22;48368;53.406;6.214;2023-08-20T00:23:07;16.10;99.90
62339;DHT22;48368;53.406;6.214;2023-08-20T00:25:33;16.00;99.90
62339;DHT22;48368;53.406;6.214;2023-08-20T00:27:59;16.00;99.90
62339;DHT22;48368;53.406;6.214;2023-08-20T00:30:24;16.10;99.90
62339;DHT22;48368;53.406;6.214;2023-08-20T00:32:50;16.10;99.90
62339;DHT22;48368;53.406;6.214;2023-08-20T00:35:16;16.10;99.90
62339;DHT22;48368;53.406;6.214;2023-08-20T00:37:42;16.20;99.90
62339;DHT22;48368;53.406;6.214;2023-08-20T00:40:10;16.20;99.90
62339;DHT22;48368;53.406;6.214;2023-08-20T00:42:36;16.10;99.90
62339;DHT22;48368;53.406;6.214;2023-08-20T00:45:02;16.10;99.90
62339;DHT22;48368;53.406;6.214;2023-08-20T00:47:29;16.10;99.90
62339;DHT22;48368;53.406;6.214;2023-08-20T00:49:56;16.10;99.90
62339;DHT22;48368;53.406;6.214;2023-08-20T00:52:22;16.10;99.90
62339;DHT22;48368;53.406;6.214;2023-08-20T00:54:49;16.10;99.90
62339;DHT22;48368;53.406;6.214;2023-08-20T00:57:17;16.10;99.90
62339;DHT22;48368;53.406;6.214;2023-08-20T00:59:43;16.00;99.90
62339;DHT22;48368;53.406;6.214;2023-08-20T01:02:10;16.00;99.90
62339;DHT22;48368;53.406;6.214;2023-08-20T01:04:36;16.00;99.90
62339;DHT22;48368;53.406;6.214;2023-08-20T01:12:39;15.80;99.90
62339;DHT22;48368;53.406;6.214;2023-08-20T01:15:05;15.80;99.90
62339;DHT22;48368;53.406;6.214;2023-08-20T01:17:31;15.70;99.90
62339;DHT22;48368;53.406;6.214;2023-08-20T01:19:56;15.70;99.90
62339;DHT22;48368;53.406;6.214;2023-08-20T01:25:42;15.70;99.90
62339;DHT22;48368;53.406;6.214;2023-08-20T01:28:37;15.60;99.90
62339;DHT22;48368;53.406;6.214;2023-08-20T01:31:05;15.60;99.90
62339;DHT22;48368;53.406;6.214;2023-08-20T01:33:31;15.60;99.90
62339;DHT22;48368;53.406;6.214;2023-08-20T01:35:58;15.60;99.90
62339;DHT22;48368;53.406;6.214;2023-08-20T01:38:23;15.70;99.90
62339;DHT22;48368;53.406;6.214;2023-08-20T01:40:49;15.70;99.90
62339;DHT22;48368;53.406;6.214;2023-08-20T01:43:15;15.80;99.90
62339;DHT22;48368;53.406;6.214;2023-08-20T01:45:41;15.80;99.90
62339;DHT22;48368;53.406;6.214;2023-08-20T01:48:06;15.80;99.90
62339;DHT22;48368;53.406;6.214;2023-08-20T01:50:34;15.90;99.90
62339;DHT22;48368;53.406;6.214;2023-08-20T01:53:00;15.90;99.90
62339;DHT22;48368;53.406;6.214;2023-08-20T01:55:25;15.90;99.90
62339;DHT22;48368;53.406;6.214;2023-08-20T01:57:51;15.90;99.90
62339;DHT22;48368;53.406;6.214;2023-08-20T02:00:17;16.00;99.90
62339;DHT22;48368;53.406;6.214;2023-08-20T02:02:42;16.00;99.90
62339;DHT22;48368;53.406;6.214;2023-08-20T02:05:08;16.00;99.90
62339;DHT22;48368;53.406;6.214;2023-08-20T02:07:36;16.00;99.90
62339;DHT22;48368;53.406;6.214;2023-08-20T02:10:01;15.90;99.90
62339;DHT22;48368;53.406;6.214;2023-08-20T02:12:27;16.00;99.90
62339;DHT22;48368;53.406;6.214;2023-08-20T02:14:59;16.00;99.90
62339;DHT22;48368;53.406;6.214;2023-08-20T02:17:25;16.00;99.90
62339;DHT22;48368;53.406;6.214;2023-08-20T02:19:50;16.00;99.90
62339;DHT22;48368;53.406;6.214;2023-08-20T02:22:16;16.00;99.90
62339;DHT22;48368;53.406;6.214;2023-08-20T02:24:42;16.00;99.90
62339;DHT22;48368;53.406;6.214;2023-08-20T02:27:08;16.00;99.90
62339;DHT22;48368;53.406;6.214;2023-08-20T02:29:34;15.90;99.90
62339;DHT22;48368;53.406;6.214;2023-08-20T02:31:59;16.00;99.90
62339;DHT22;48368;53.406;6.214;2023-08-20T02:34:25;15.90;99.90
62339;DHT22;48368;53.406;6.214;2023-08-20T02:36:50;15.90;99.90
62339;DHT22;48368;53.406;6.214;2023-08-20T02:39:16;15.90;99.90
62339;DHT22;48368;53.406;6.214;2023-08-20T02:41:42;15.80;99.90
62339;DHT22;48368;53.406;6.214;2023-08-20T02:44:08;15.90;99.90
62339;DHT22;48368;53.406;6.214;2023-08-20T02:46:33;15.80;99.90
62339;DHT22;48368;53.406;6.214;2023-08-20T02:48:59;15.70;99.90
62339;DHT22;48368;53.406;6.214;2023-08-20T02:51:24;15.70;99.90
62339;DHT22;48368;53.406;6.214;2023-08-20T02:53:50;15.70;99.90
62339;DHT22;48368;53.406;6.214;2023-08-20T02:56:16;15.70;99.90
62339;DHT22;48368;53.406;6.214;2023-08-20T02:58:41;15.70;99.90
62339;DHT22;48368;53.406;6.214;2023-08-20T03:01:17;15.60;99.90
62339;DHT22;48368;53.406;6.214;2023-08-20T03:03:43;15.60;99.90
62339;DHT22;48368;53.406;6.214;2023-08-20T03:06:12;15.60;99.90
62339;DHT22;48368;53.406;6.214;2023-08-20T03:08:37;15.50;99.90
62339;DHT22;48368;53.406;6.214;2023-08-20T03:11:03;15.50;99.90
62339;DHT22;48368;53.406;6.214;2023-08-20T03:13:29;15.50;99.90
62339;DHT22;48368;53.406;6.214;2023-08-20T03:15:54;15.50;99.90
62339;DHT22;48368;53.406;6.214;2023-08-20T03:18:23;15.50;99.90
62339;DHT22;48368;53.406;6.214;2023-08-20T03:20:51;15.50;99.90
62339;DHT22;48368;53.406;6.214;2023-08-20T03:23:17;15.50;99.90
62339;DHT22;48368;53.406;6.214;2023-08-20T03:25:42;15.40;99.90
62339;DHT22;48368;53.406;6.214;2023-08-20T03:28:08;15.40;99.90
62339;DHT22;48368;53.406;6.214;2023-08-20T03:30:34;15.40;99.90
62339;DHT22;48368;53.406;6.214;2023-08-20T03:32:59;15.40;99.90
62339;DHT22;48368;53.406;6.214;2023-08-20T03:35:25;15.40;99.90
62339;DHT22;48368;53.406;6.214;2023-08-20T03:37:51;15.40;99.90
62339;DHT22;48368;53.406;6.214;2023-08-20T03:40:16;15.40;99.90
62339;DHT22;48368;53.406;6.214;2023-08-20T03:42:43;15.40;99.90
62339;DHT22;48368;53.406;6.214;2023-08-20T03:45:09;15.40;99.90
62339;DHT22;48368;53.406;6.214;2023-08-20T03:47:35;15.30;99.90
62339;DHT22;48368;53.406;6.214;2023-08-20T03:50:02;15.40;99.90
62339;DHT22;48368;53.406;6.214;2023-08-20T03:52:29;15.30;99.90
62339;DHT22;48368;53.406;6.214;2023-08-20T03:54:54;15.40;99.90
62339;DHT22;48368;53.406;6.214;2023-08-20T03:57:20;15.30;99.90
62339;DHT22;48368;53.406;6.214;2023-08-20T03:59:46;15.30;99.90
62339;DHT22;48368;53.406;6.214;2023-08-20T04:02:13;15.30;99.90
62339;DHT22;48368;53.406;6.214;2023-08-20T04:04:38;15.30;99.90
62339;DHT22;48368;53.406;6.214;2023-08-20T04:07:04;15.30;99.90
62339;DHT22;48368;53.406;6.214;2023-08-20T04:09:30;15.20;99.90
62339;DHT22;48368;53.406;6.214;2023-08-20T04:11:57;15.20;99.90
62339;DHT22;48368;53.406;6.214;2023-08-20T04:14:26;15.30;99.90
62339;DHT22;48368;53.406;6.214;2023-08-20T04:16:51;15.40;99.90
62339;DHT22;48368;53.406;6.214;2023-08-20T04:19:17;15.30;99.90
62339;DHT22;48368;53.406;6.214;2023-08-20T04:21:42;15.40;99.90
62339;DHT22;48368;53.406;6.214;2023-08-20T04:24:08;15.50;99.90
62339;DHT22;48368;53.406;6.214;2023-08-20T04:26:34;15.50;99.90
62339;DHT22;48368;53.406;6.214;2023-08-20T04:29:00;15.50;99.90
62339;DHT22;48368;53.406;6.214;2023-08-20T04:31:25;15.60;99.90
62339;DHT22;48368;53.406;6.214;2023-08-20T04:33:51;15.50;99.90
62339;DHT22;48368;53.406;6.214;2023-08-20T04:36:17;15.60;99.90
62339;DHT22;48368;53.406;6.214;2023-08-20T04:38:45;15.60;99.90
62339;DHT22;48368;53.406;6.214;2023-08-20T04:41:11;15.70;99.90
62339;DHT22;48368;53.406;6.214;2023-08-20T04:43:37;15.60;99.90
62339;DHT22;48368;53.406;6.214;2023-08-20T04:46:02;15.70;99.90
62339;DHT22;48368;53.406;6.214;2023-08-20T04:48:31;15.70;99.90
62339;DHT22;48368;53.406;6.214;2023-08-20T04:50:57;15.70;99.90
62339;DHT22;48368;53.406;6.214;2023-08-20T04:53:22;15.70;99.90
62339;DHT22;48368;53.406;6.214;2023-08-20T04:55:48;15.80;99.90
62339;DHT22;48368;53.406;6.214;2023-08-20T04:58:13;15.80;99.90
62339;DHT22;48368;53.406;6.214;2023-08-20T05:00:39;15.80;99.90
62339;DHT22;48368;53.406;6.214;2023-08-20T05:03:05;15.80;99.90
62339;DHT22;48368;53.406;6.214;2023-08-20T05:05:30;15.80;99.90
62339;DHT22;48368;53.406;6.214;2023-08-20T05:07:56;15.90;99.90
62339;DHT22;48368;53.406;6.214;2023-08-20T05:10:21;15.90;99.90
62339;DHT22;48368;53.406;6.214;2023-08-20T05:12:47;16.00;99.90
62339;DHT22;48368;53.406;6.214;2023-08-20T05:15:13;15.90;99.90
62339;DHT22;48368;53.406;6.214;2023-08-20T05:17:38;16.10;99.90
62339;DHT22;48368;53.406;6.214;2023-08-20T05:20:05;16.10;99.90
62339;DHT22;48368;53.406;6.214;2023-08-20T05:22:31;16.10;99.90
62339;DHT22;48368;53.406;6.214;2023-08-20T05:24:56;16.10;99.90
62339;DHT22;48368;53.406;6.214;2023-08-20T05:27:22;16.10;99.90
62339;DHT22;48368;53.406;6.214;2023-08-20T05:29:48;16.20;99.90
62339;DHT22;48368;53.406;6.214;2023-08-20T05:32:16;16.20;99.90
62339;DHT22;48368;53.406;6.214;2023-08-20T05:34:41;16.30;99.90
62339;DHT22;48368;53.406;6.214;2023-08-20T05:37:10;16.30;99.90
62339;DHT22;48368;53.406;6.214;2023-08-20T05:39:39;16.30;99.90
62339;DHT22;48368;53.406;6.214;2023-08-20T05:42:05;16.40;99.90
62339;DHT22;48368;53.406;6.214;2023-08-20T05:44:31;16.40;99.90
62339;DHT22;48368;53.406;6.214;2023-08-20T05:46:57;16.50;99.90
62339;DHT22;48368;53.406;6.214;2023-08-20T05:49:22;16.50;99.90
62339;DHT22;48368;53.406;6.214;2023-08-20T05:51:48;16.60;99.90
62339;DHT22;48368;53.406;6.214;2023-08-20T05:54:13;16.70;99.90
62339;DHT22;48368;53.406;6.214;2023-08-20T05:56:39;16.80;99.90
62339;DHT22;48368;53.406;6.214;2023-08-20T05:59:05;16.90;99.90
62339;DHT22;48368;53.406;6.214;2023-08-20T06:01:31;17.00;99.90
62339;DHT22;48368;53.406;6.214;2023-08-20T06:03:56;17.00;99.90
62339;DHT22;48368;53.406;6.214;2023-08-20T06:06:22;17.10;99.90
62339;DHT22;48368;53.406;6.214;2023-08-20T06:08:48;17.20;99.90
62339;DHT22;48368;53.406;6.214;2023-08-20T06:11:13;17.30;99.90
62339;DHT22;48368;53.406;6.214;2023-08-20T06:13:39;17.30;99.90
62339;DHT22;48368;53.406;6.214;2023-08-20T06:16:06;17.50;99.90
62339;DHT22;48368;53.406;6.214;2023-08-20T06:18:32;17.60;99.90
62339;DHT22;48368;53.406;6.214;2023-08-20T06:20:57;17.80;99.90
62339;DHT22;48368;53.406;6.214;2023-08-20T06:23:26;17.80;99.90
62339;DHT22;48368;53.406;6.214;2023-08-20T06:25:51;18.00;99.90
62339;DHT22;48368;53.406;6.214;2023-08-20T06:28:17;18.10;99.90
62339;DHT22;48368;53.406;6.214;2023-08-20T06:30:44;18.30;99.90
62339;DHT22;48368;53.406;6.214;2023-08-20T06:33:10;18.40;99.90
62339;DHT22;48368;53.406;6.214;2023-08-20T06:35:35;18.50;99.90
62339;DHT22;48368;53.406;6.214;2023-08-20T06:38:03;18.60;99.90
62339;DHT22;48368;53.406;6.214;2023-08-20T06:40:28;18.70;99.90
62339;DHT22;48368;53.406;6.214;2023-08-20T06:42:54;18.80;99.90
62339;DHT22;48368;53.406;6.214;2023-08-20T06:45:22;18.90;99.90
62339;DHT22;48368;53.406;6.214;2023-08-20T06:47:48;19.00;99.90
62339;DHT22;48368;53.406;6.214;2023-08-20T06:50:13;19.10;99.90
62339;DHT22;48368;53.406;6.214;2023-08-20T06:52:39;19.20;99.90
62339;DHT22;48368;53.406;6.214;2023-08-20T06:55:05;19.20;99.90
62339;DHT22;48368;53.406;6.214;2023-08-20T06:57:30;19.40;99.90
62339;DHT22;48368;53.406;6.214;2023-08-20T06:59:56;19.50;99.90
62339;DHT22;48368;53.406;6.214;2023-08-20T07:02:25;19.60;99.90
62339;DHT22;48368;53.406;6.214;2023-08-20T07:04:54;19.70;99.90
62339;DHT22;48368;53.406;6.214;2023-08-20T07:07:19;19.80;99.90
62339;DHT22;48368;53.406;6.214;2023-08-20T07:09:45;19.90;99.90
62339;DHT22;48368;53.406;6.214;2023-08-20T07:12:10;20.00;99.90
62339;DHT22;48368;53.406;6.214;2023-08-20T07:14:36;20.10;99.90
62339;DHT22;48368;53.406;6.214;2023-08-20T07:17:02;20.00;99.90
62339;DHT22;48368;53.406;6.214;2023-08-20T07:19:30;20.10;99.90
62339;DHT22;48368;53.406;6.214;2023-08-20T07:21:56;20.20;99.90
62339;DHT22;48368;53.406;6.214;2023-08-20T07:24:22;20.30;99.90
62339;DHT22;48368;53.406;6.214;2023-08-20T07:26:54;20.50;99.90
62339;DHT22;48368;53.406;6.214;2023-08-20T07:29:29;20.50;99.90
62339;DHT22;48368;53.406;6.214;2023-08-20T07:31:57;20.60;99.90
62339;DHT22;48368;53.406;6.214;2023-08-20T07:34:23;20.70;99.90
62339;DHT22;48368;53.406;6.214;2023-08-20T07:36:49;20.80;99.90
62339;DHT22;48368;53.406;6.214;2023-08-20T07:39:17;20.80;99.90
62339;DHT22;48368;53.406;6.214;2023-08-20T07:41:43;20.90;99.90
62339;DHT22;48368;53.406;6.214;2023-08-20T07:44:09;20.90;99.90
62339;DHT22;48368;53.406;6.214;2023-08-20T07:46:37;21.00;99.90
62339;DHT22;48368;53.406;6.214;2023-08-20T07:49:03;21.10;99.90
62339;DHT22;48368;53.406;6.214;2023-08-20T07:51:29;21.20;99.90
62339;DHT22;48368;53.406;6.214;2023-08-20T07:53:54;21.30;99.90
62339;DHT22;48368;53.406;6.214;2023-08-20T07:56:20;21.30;99.90
62339;DHT22;48368;53.406;6.214;2023-08-20T07:58:46;21.40;99.90
62339;DHT22;48368;53.406;6.214;2023-08-20T08:01:11;21.40;99.90
62339;DHT22;48368;53.406;6.214;2023-08-20T08:03:40;21.50;99.90
62339;DHT22;48368;53.406;6.214;2023-08-20T08:06:05;21.60;99.90
62339;DHT22;48368;53.406;6.214;2023-08-20T08:08:31;21.70;99.90
62339;DHT22;48368;53.406;6.214;2023-08-20T08:10:57;21.70;99.90
62339;DHT22;48368;53.406;6.214;2023-08-20T08:13:23;21.80;99.90
62339;DHT22;48368;53.406;6.214;2023-08-20T08:15:49;21.80;99.90
62339;DHT22;48368;53.406;6.214;2023-08-20T08:18:15;21.90;99.90
62339;DHT22;48368;53.406;6.214;2023-08-20T08:20:41;21.80;99.90
62339;DHT22;48368;53.406;6.214;2023-08-20T08:23:07;21.80;99.90
62339;DHT22;48368;53.406;6.214;2023-08-20T08:25:32;21.90;99.90
62339;DHT22;48368;53.406;6.214;2023-08-20T08:27:58;22.00;99.90
62339;DHT22;48368;53.406;6.214;2023-08-20T08:30:27;22.10;99.90
62339;DHT22;48368;53.406;6.214;2023-08-20T08:32:53;22.10;99.90
62339;DHT22;48368;53.406;6.214;2023-08-20T08:35:19;22.20;99.90
62339;DHT22;48368;53.406;6.214;2023-08-20T08:37:45;22.30;99.90
62339;DHT22;48368;53.406;6.214;2023-08-20T08:40:11;22.30;99.90
62339;DHT22;48368;53.406;6.214;2023-08-20T08:42:37;22.10;99.90
62339;DHT22;48368;53.406;6.214;2023-08-20T08:45:03;22.00;99.90
62339;DHT22;48368;53.406;6.214;2023-08-20T08:47:29;22.00;99.90
62339;DHT22;48368;53.406;6.214;2023-08-20T08:49:55;22.10;99.90
62339;DHT22;48368;53.406;6.214;2023-08-20T08:52:23;22.20;99.90
62339;DHT22;48368;53.406;6.214;2023-08-20T08:54:49;21.90;99.90
62339;DHT22;48368;53.406;6.214;2023-08-20T08:57:15;21.90;99.90
62339;DHT22;48368;53.406;6.214;2023-08-20T08:59:42;21.90;99.90
62339;DHT22;48368;53.406;6.214;2023-08-20T09:02:10;22.00;99.90
62339;DHT22;48368;53.406;6.214;2023-08-20T09:04:40;22.20;99.90
62339;DHT22;48368;53.406;6.214;2023-08-20T09:07:11;22.30;99.90
62339;DHT22;48368;53.406;6.214;2023-08-20T09:09:42;22.40;99.90
62339;DHT22;48368;53.406;6.214;2023-08-20T09:12:18;22.40;99.90
62339;DHT22;48368;53.406;6.214;2023-08-20T09:14:46;22.40;99.90
62339;DHT22;48368;53.406;6.214;2023-08-20T09:17:13;22.50;99.90
62339;DHT22;48368;53.406;6.214;2023-08-20T09:19:39;22.60;99.90
62339;DHT22;48368;53.406;6.214;2023-08-20T09:22:05;22.70;99.90
62339;DHT22;48368;53.406;6.214;2023-08-20T09:24:38;22.80;99.90
62339;DHT22;48368;53.406;6.214;2023-08-20T09:27:04;22.80;99.90
62339;DHT22;48368;53.406;6.214;2023-08-20T09:29:46;23.00;99.90
62339;DHT22;48368;53.406;6.214;2023-08-20T09:32:16;23.10;99.90
62339;DHT22;48368;53.406;6.214;2023-08-20T09:34:43;23.10;99.90
62339;DHT22;48368;53.406;6.214;2023-08-20T09:37:16;23.20;99.90
62339;DHT22;48368;53.406;6.214;2023-08-20T09:39:42;23.20;99.90
62339;DHT22;48368;53.406;6.214;2023-08-20T09:42:09;23.30;99.90
62339;DHT22;48368;53.406;6.214;2023-08-20T09:44:45;23.40;99.90
62339;DHT22;48368;53.406;6.214;2023-08-20T09:47:15;23.50;99.90
62339;DHT22;48368;53.406;6.214;2023-08-20T09:49:43;23.60;99.90
62339;DHT22;48368;53.406;6.214;2023-08-20T09:52:10;23.40;99.90
62339;DHT22;48368;53.406;6.214;2023-08-20T09:57:12;23.50;99.90
62339;DHT22;48368;53.406;6.214;2023-08-20T09:59:41;23.50;99.90
62339;DHT22;48368;53.406;6.214;2023-08-20T10:02:09;23.60;99.90
62339;DHT22;48368;53.406;6.214;2023-08-20T10:04:37;23.70;99.90
62339;DHT22;48368;53.406;6.214;2023-08-20T10:07:03;23.80;99.90
62339;DHT22;48368;53.406;6.214;2023-08-20T10:09:29;23.90;99.90
62339;DHT22;48368;53.406;6.214;2023-08-20T10:11:55;24.00;99.90
62339;DHT22;48368;53.406;6.214;2023-08-20T10:14:21;24.10;99.90
62339;DHT22;48368;53.406;6.214;2023-08-20T10:16:47;24.10;99.90
62339;DHT22;48368;53.406;6.214;2023-08-20T10:19:15;24.00;99.90
62339;DHT22;48368;53.406;6.214;2023-08-20T10:21:45;23.80;99.90
62339;DHT22;48368;53.406;6.214;2023-08-20T10:24:17;23.90;99.90
62339;DHT22;48368;53.406;6.214;2023-08-20T10:26:45;23.60;99.90
62339;DHT22;48368;53.406;6.214;2023-08-20T10:29:34;23.70;99.90
62339;DHT22;48368;53.406;6.214;2023-08-20T10:32:08;23.80;99.90
62339;DHT22;48368;53.406;6.214;2023-08-20T10:34:36;23.90;99.90
62339;DHT22;48368;53.406;6.214;2023-08-20T10:37:15;24.00;99.90
62339;DHT22;48368;53.406;6.214;2023-08-20T10:39:41;24.30;99.90
62339;DHT22;48368;53.406;6.214;2023-08-20T10:45:06;24.70;99.90
62339;DHT22;48368;53.406;6.214;2023-08-20T10:50:05;24.90;99.90
62339;DHT22;48368;53.406;6.214;2023-08-20T10:52:38;25.00;99.90
62339;DHT22;48368;53.406;6.214;2023-08-20T10:55:09;25.10;99.90
62339;DHT22;48368;53.406;6.214;2023-08-20T10:57:36;25.00;99.90
62339;DHT22;48368;53.406;6.214;2023-08-20T11:00:05;24.80;99.90
62339;DHT22;48368;53.406;6.214;2023-08-20T11:02:36;24.40;99.90
62339;DHT22;48368;53.406;6.214;2023-08-20T11:05:03;24.00;99.90
62339;DHT22;48368;53.406;6.214;2023-08-20T11:07:30;24.00;99.90
62339;DHT22;48368;53.406;6.214;2023-08-20T11:09:57;23.60;99.90
62339;DHT22;48368;53.406;6.214;2023-08-20T11:12:23;23.50;99.90
62339;DHT22;48368;53.406;6.214;2023-08-20T11:14:49;23.50;99.90
62339;DHT22;48368;53.406;6.214;2023-08-20T11:17:18;23.40;99.90
62339;DHT22;48368;53.406;6.214;2023-08-20T11:19:43;23.20;99.90
62339;DHT22;48368;53.406;6.214;2023-08-20T11:22:09;23.10;99.90
62339;DHT22;48368;53.406;6.214;2023-08-20T11:24:35;22.90;99.90
62339;DHT22;48368;53.406;6.214;2023-08-20T11:27:04;22.80;99.90
62339;DHT22;48368;53.406;6.214;2023-08-20T11:29:30;22.60;99.90
62339;DHT22;48368;53.406;6.214;2023-08-20T11:31:56;22.50;99.90
62339;DHT22;48368;53.406;6.214;2023-08-20T11:34:24;22.40;99.90
62339;DHT22;48368;53.406;6.214;2023-08-20T11:36:53;22.60;99.90
62339;DHT22;48368;53.406;6.214;2023-08-20T11:39:18;22.50;99.90
62339;DHT22;48368;53.406;6.214;2023-08-20T11:41:45;22.70;99.90
62339;DHT22;48368;53.406;6.214;2023-08-20T11:44:18;22.90;99.90
62339;DHT22;48368;53.406;6.214;2023-08-20T11:46:44;22.90;99.90
62339;DHT22;48368;53.406;6.214;2023-08-20T11:49:12;23.10;99.90
62339;DHT22;48368;53.406;6.214;2023-08-20T11:51:38;23.30;99.90
62339;DHT22;48368;53.406;6.214;2023-08-20T11:54:11;23.40;99.90
62339;DHT22;48368;53.406;6.214;2023-08-20T11:56:50;23.40;99.90
62339;DHT22;48368;53.406;6.214;2023-08-20T11:59:18;23.60;99.90
62339;DHT22;48368;53.406;6.214;2023-08-20T12:01:54;23.50;99.90
62339;DHT22;48368;53.406;6.214;2023-08-20T12:04:25;23.50;99.90
62339;DHT22;48368;53.406;6.214;2023-08-20T12:07:03;23.60;99.90
62339;DHT22;48368;53.406;6.214;2023-08-20T12:09:30;23.60;99.90
62339;DHT22;48368;53.406;6.214;2023-08-20T12:11:56;23.80;99.90
62339;DHT22;48368;53.406;6.214;2023-08-20T12:14:25;23.80;99.90
62339;DHT22;48368;53.406;6.214;2023-08-20T12:16:53;23.70;99.90
62339;DHT22;48368;53.406;6.214;2023-08-20T12:19:19;23.80;99.90
62339;DHT22;48368;53.406;6.214;2023-08-20T12:21:45;23.70;99.90
62339;DHT22;48368;53.406;6.214;2023-08-20T12:24:14;23.50;99.90
62339;DHT22;48368;53.406;6.214;2023-08-20T12:26:41;23.20;99.90
62339;DHT22;48368;53.406;6.214;2023-08-20T12:29:07;23.30;99.90
62339;DHT22;48368;53.406;6.214;2023-08-20T12:31:34;23.30;99.90
62339;DHT22;48368;53.406;6.214;2023-08-20T12:34:03;23.30;99.90
62339;DHT22;48368;53.406;6.214;2023-08-20T12:36:29;23.30;99.90
62339;DHT22;48368;53.406;6.214;2023-08-20T12:38:55;23.40;99.90
62339;DHT22;48368;53.406;6.214;2023-08-20T12:41:21;23.40;99.90
62339;DHT22;48368;53.406;6.214;2023-08-20T12:43:47;23.30;99.90
62339;DHT22;48368;53.406;6.214;2023-08-20T12:46:12;23.20;99.90
62339;DHT22;48368;53.406;6.214;2023-08-20T12:48:39;22.90;99.90
62339;DHT22;48368;53.406;6.214;2023-08-20T12:51:05;22.90;99.90
62339;DHT22;48368;53.406;6.214;2023-08-20T12:53:31;23.00;99.90
62339;DHT22;48368;53.406;6.214;2023-08-20T12:55:56;23.10;99.90
62339;DHT22;48368;53.406;6.214;2023-08-20T12:58:22;23.10;99.90
62339;DHT22;48368;53.406;6.214;2023-08-20T13:00:49;23.10;99.90
62339;DHT22;48368;53.406;6.214;2023-08-20T13:03:15;23.10;99.90
62339;DHT22;48368;53.406;6.214;2023-08-20T13:05:41;23.00;99.90
62339;DHT22;48368;53.406;6.214;2023-08-20T13:08:07;22.90;99.90
62339;DHT22;48368;53.406;6.214;2023-08-20T13:10:33;22.90;99.90
62339;DHT22;48368;53.406;6.214;2023-08-20T13:13:01;22.90;99.90
62339;DHT22;48368;53.406;6.214;2023-08-20T13:15:27;22.90;99.90
62339;DHT22;48368;53.406;6.214;2023-08-20T13:17:55;22.90;99.90
62339;DHT22;48368;53.406;6.214;2023-08-20T13:20:21;22.90;99.90
62339;DHT22;48368;53.406;6.214;2023-08-20T13:22:49;23.00;99.90
62339;DHT22;48368;53.406;6.214;2023-08-20T13:25:17;23.00;99.90
62339;DHT22;48368;53.406;6.214;2023-08-20T13:27:47;22.80;99.90
62339;DHT22;48368;53.406;6.214;2023-08-20T13:30:15;22.70;99.90
62339;DHT22;48368;53.406;6.214;2023-08-20T13:32:41;22.80;99.90
62339;DHT22;48368;53.406;6.214;2023-08-20T13:35:07;22.80;99.90
62339;DHT22;48368;53.406;6.214;2023-08-20T13:37:33;22.80;99.90
62339;DHT22;48368;53.406;6.214;2023-08-20T13:40:00;22.90;99.90
62339;DHT22;48368;53.406;6.214;2023-08-20T13:42:26;22.90;99.90
62339;DHT22;48368;53.406;6.214;2023-08-20T13:44:52;23.00;99.90
62339;DHT22;48368;53.406;6.214;2023-08-20T13:47:21;23.20;99.90
62339;DHT22;48368;53.406;6.214;2023-08-20T13:49:46;23.40;99.90
62339;DHT22;48368;53.406;6.214;2023-08-20T13:52:12;23.40;99.90
62339;DHT22;48368;53.406;6.214;2023-08-20T13:54:37;23.30;99.90
62339;DHT22;48368;53.406;6.214;2023-08-20T13:57:04;23.40;99.90
62339;DHT22;48368;53.406;6.214;2023-08-20T13:59:30;23.10;99.90
62339;DHT22;48368;53.406;6.214;2023-08-20T14:01:56;23.10;99.90
62339;DHT22;48368;53.406;6.214;2023-08-20T14:04:22;23.20;99.90
62339;DHT22;48368;53.406;6.214;2023-08-20T14:06:47;23.20;99.90
62339;DHT22;48368;53.406;6.214;2023-08-20T14:09:16;23.20;99.90
62339;DHT22;48368;53.406;6.214;2023-08-20T14:11:45;23.20;99.90
62339;DHT22;48368;53.406;6.214;2023-08-20T14:14:12;23.20;99.90
62339;DHT22;48368;53.406;6.214;2023-08-20T14:16:37;23.10;99.90
62339;DHT22;48368;53.406;6.214;2023-08-20T14:19:03;23.20;99.90
62339;DHT22;48368;53.406;6.214;2023-08-20T14:21:32;23.40;99.90
62339;DHT22;48368;53.406;6.214;2023-08-20T14:23:57;23.50;99.90
62339;DHT22;48368;53.406;6.214;2023-08-20T14:26:23;23.60;99.90
62339;DHT22;48368;53.406;6.214;2023-08-20T14:28:49;23.50;99.90
62339;DHT22;48368;53.406;6.214;2023-08-20T14:31:15;23.40;99.90
62339;DHT22;48368;53.406;6.214;2023-08-20T14:33:43;23.40;99.90
62339;DHT22;48368;53.406;6.214;2023-08-20T14:36:09;23.20;99.90
62339;DHT22;48368;53.406;6.214;2023-08-20T14:38:34;23.30;99.90
62339;DHT22;48368;53.406;6.214;2023-08-20T14:41:01;23.30;99.90
62339;DHT22;48368;53.406;6.214;2023-08-20T14:43:27;23.20;99.90
62339;DHT22;48368;53.406;6.214;2023-08-20T14:45:53;23.30;99.90
62339;DHT22;48368;53.406;6.214;2023-08-20T14:48:20;23.30;99.90
62339;DHT22;48368;53.406;6.214;2023-08-20T14:50:45;23.40;99.90
62339;DHT22;48368;53.406;6.214;2023-08-20T14:53:11;23.40;99.90
62339;DHT22;48368;53.406;6.214;2023-08-20T14:55:37;23.40;99.90
62339;DHT22;48368;53.406;6.214;2023-08-20T14:58:03;23.40;99.90
62339;DHT22;48368;53.406;6.214;2023-08-20T15:00:34;23.30;99.90
62339;DHT22;48368;53.406;6.214;2023-08-20T15:03:00;23.40;99.90
62339;DHT22;48368;53.406;6.214;2023-08-20T15:05:26;23.40;99.90
62339;DHT22;48368;53.406;6.214;2023-08-20T15:07:52;23.40;99.90
62339;DHT22;48368;53.406;6.214;2023-08-20T15:10:18;23.40;99.90
62339;DHT22;48368;53.406;6.214;2023-08-20T15:12:44;23.20;99.90
62339;DHT22;48368;53.406;6.214;2023-08-20T15:15:10;23.30;99.90
62339;DHT22;48368;53.406;6.214;2023-08-20T15:17:36;23.20;99.90
62339;DHT22;48368;53.406;6.214;2023-08-20T15:20:03;23.30;99.90
62339;DHT22;48368;53.406;6.214;2023-08-20T15:22:36;23.20;99.90
62339;DHT22;48368;53.406;6.214;2023-08-20T15:25:02;23.30;99.90
62339;DHT22;48368;53.406;6.214;2023-08-20T15:27:36;23.40;99.90
62339;DHT22;48368;53.406;6.214;2023-08-20T15:30:05;23.40;99.90
62339;DHT22;48368;53.406;6.214;2023-08-20T15:32:32;23.40;99.90
62339;DHT22;48368;53.406;6.214;2023-08-20T15:34:57;23.30;99.90
62339;DHT22;48368;53.406;6.214;2023-08-20T15:37:23;23.20;99.90
62339;DHT22;48368;53.406;6.214;2023-08-20T15:39:51;23.20;99.90
62339;DHT22;48368;53.406;6.214;2023-08-20T15:42:17;23.20;99.90
62339;DHT22;48368;53.406;6.214;2023-08-20T15:44:44;23.10;99.90